SpazioLink.com il tuo mini portale

Terremoti in Italia, posizione geografica

Spaziolink il MiniPortale

Home Sfondi Cerca SuperEnalotto Posizione navi Terremoti Directory Video Forum Giochi Meteo Gifs Software
Lista dei terremoti in Italia in tempo reale dopo l'elaborazione dei valori rilevati dai sensori dislocati nelle zone interessate, comprendenti gli eventi sismici di elevata magnitudo sull'intero globo, per visualizzare la posizione dell'epicentro su Google Maps cliccare sul nome del luogo evidenziato in blu.
DATA ORA MAG ≥ 2 ZONA REGIONE LAT LONG PROF km
23/05/2019 12:51:33 ML 2.0 Costa Toscana settentrionale (Massa-Carrara, Lucca, Pisa) ----- 43.83 10.17   3.5
23/05/2019 10:45:18 Mwp 6.1 Andreanof Islands, Aleutian Islands, United States (Sea: United States) ----- 51.38 -178.34  19.5
23/05/2019 06:35:58 ML 2.0 11 km a ovest di Milo (CT) Sicilia 37.76 15.00   0.9
22/05/2019 19:20:27 ML 2.3 Costa Calabra sud-occidentale (Catanzaro, Vibo Valentia, Reggio di Calabria) Calabria 38.82 16.02  54.1
22/05/2019 16:42:17 ML 2.1 1 km a sud-est di Salsomaggiore Terme (PR) Emilia Romagna 44.81 9.98  29.3
22/05/2019 16:37:36 ML 3.3 4 km a est di Vernasca (PC) Emilia Romagna 44.79 9.87  26.6
21/05/2019 18:33:48 ML 2.2 Tirreno Meridionale (MARE) ----- 38.59 15.57 152.4
21/05/2019 17:22:42 ML 2.3 2 km a nord-ovest di San Giovanni d'Asso (SI) Toscana 43.17 11.58   2.1
21/05/2019 15:15:25 ML 2.0 7 km a ovest di Zafferana Etnea (CT) Sicilia 37.71 15.03  10.9
21/05/2019 10:13:33 Mw 3.7 3 km a sud-est di Barletta (BT) Puglia 41.30 16.30  29.9
21/05/2019 06:45:25 ML 3.3 Costa Marchigiana Fermana (Fermo) ----- 43.37 13.93   7.9
21/05/2019 06:20:36 ML 2.7 Tirreno Meridionale (MARE) ----- 39.21 15.45 262.9
21/05/2019 05:09:13 ML 2.0 3 km a sud-est di Capitignano (AQ) Abruzzo 42.50 13.33  13.3
20/05/2019 23:04:31 ML 2.7 5 km a ovest di Milo (CT) Sicilia 37.73 15.06   4.9
20/05/2019 16:58:48 ML 2.9 Costa Calabra sud-occidentale (Catanzaro, Vibo Valentia, Reggio di Calabria) Calabria 38.98 16.04   1.8
20/05/2019 16:36:17 ML 2.0 5 km a sud di Bolognola (MC) Marche 42.95 13.22   8.0
20/05/2019 13:19:36 ML 2.0 2 km a sud-ovest di Capitignano (AQ) Abruzzo 42.51 13.29  14.7
20/05/2019 09:45:43 ML 2.1 4 km a sud-est di San Pietro di Caridà (RC) Calabria 38.49 16.15  10.1
20/05/2019 08:47:59 ML 2.5 2 km a nord-ovest di Robecco sul Naviglio (MI) ----- 45.45 8.87   8.5
20/05/2019 05:32:15 ML 2.1 5 km a ovest di Gamberale (CH) Abruzzo 41.93 14.15  17.1
20/05/2019 02:57:24 ML 2.4 Costa Adriatica Brindisina (Brindisi) ----- 40.78 17.64   2.1
19/05/2019 16:56:50 Mwp 6.4 New Caledonia (Sea) ----- -21.59 169.66  19.5
19/05/2019 16:27:12 Mwp 6.0 New Caledonia (Sea) ----- -21.59 169.69   9.8
19/05/2019 15:18:30 ML 2.1 4 km a sud-est di Castelbuono (PA) Sicilia 37.90 14.11   8.1
19/05/2019 15:17:14 ML 2.7 5 km nord-est Montone (PG) Umbria 43.40 12.36   9.3
19/05/2019 03:23:28 Mwp 6.3 New Caledonia (Sea) ----- -21.65 169.76   9.8
19/05/2019 01:28:03 ML 2.2 Isole Eolie (Messina) Sicilia 38.35 14.84   9.0
18/05/2019 23:11:18 Md 2.5 5 km a sud-ovest di Ottaviano (NA) Campania 40.82 14.43   2.2
18/05/2019 22:02:04 ML 2.7 Tirreno Meridionale (MARE) ----- 38.45 15.43 118.8
18/05/2019 22:01:59 ML 2.0 2 km a est di Costacciaro (PG) Umbria 43.35 12.73  10.9
18/05/2019 21:39:08 ML 2.0 Costa Siciliana nord-orientale (Messina) Sicilia 38.36 15.37 117.7
18/05/2019 21:35:15 ML 3.0 2 km a sud-ovest di Muccia (MC) Marche 43.06 13.03   8.1
18/05/2019 20:30:45 ML 3.0 Costa Marchigiana Maceratese (Macerata) ----- 43.40 13.93   8.1
17/05/2019 05:32:40 ML 2.0 5 km a ovest di Canosa di Puglia (BT) Puglia 41.22 16.01   5.9
16/05/2019 20:56:02 ML 2.0 13 km a ovest di Milo (CT) Sicilia 37.75 14.98   5.9
16/05/2019 15:53:23 ML 2.8 3 km a est di Castel d'Aiano (BO) Emilia Romagna 44.27 11.04   9.5
- traduzioni - freegames - frasi - subnet mask - partners - ipcheck - pagerank - wi-fi - barzellette - favicon - speedtest - programmone - calendariofeste - screenmates -
Locations of visitors to this page